sensor_id;sensor_type;location;lat;lon;timestamp;temperature;humidity
8010;DHT22;4050;51.160;6.938;2022-07-17T00:00:55;15.60;63.20
8010;DHT22;4050;51.160;6.938;2022-07-17T00:03:23;15.60;63.50
8010;DHT22;4050;51.160;6.938;2022-07-17T00:05:51;15.60;63.80
8010;DHT22;4050;51.160;6.938;2022-07-17T00:08:19;15.60;64.10
8010;DHT22;4050;51.160;6.938;2022-07-17T00:10:47;15.50;64.50
8010;DHT22;4050;51.160;6.938;2022-07-17T00:13:16;15.50;64.90
8010;DHT22;4050;51.160;6.938;2022-07-17T00:15:45;15.40;65.40
8010;DHT22;4050;51.160;6.938;2022-07-17T00:18:13;15.40;65.80
8010;DHT22;4050;51.160;6.938;2022-07-17T00:20:41;15.40;66.40
8010;DHT22;4050;51.160;6.938;2022-07-17T00:23:10;15.40;66.90
8010;DHT22;4050;51.160;6.938;2022-07-17T00:25:38;15.40;67.10
8010;DHT22;4050;51.160;6.938;2022-07-17T00:28:07;15.30;67.50
8010;DHT22;4050;51.160;6.938;2022-07-17T00:30:36;15.20;67.90
8010;DHT22;4050;51.160;6.938;2022-07-17T00:33:04;15.20;68.50
8010;DHT22;4050;51.160;6.938;2022-07-17T00:35:32;15.10;69.00
8010;DHT22;4050;51.160;6.938;2022-07-17T00:38:00;15.10;69.70
8010;DHT22;4050;51.160;6.938;2022-07-17T00:40:28;15.10;70.10
8010;DHT22;4050;51.160;6.938;2022-07-17T00:42:56;15.00;70.20
8010;DHT22;4050;51.160;6.938;2022-07-17T00:45:24;15.00;70.70
8010;DHT22;4050;51.160;6.938;2022-07-17T00:47:58;15.00;71.00
8010;DHT22;4050;51.160;6.938;2022-07-17T00:50:28;15.00;71.80
8010;DHT22;4050;51.160;6.938;2022-07-17T00:52:57;14.90;72.10
8010;DHT22;4050;51.160;6.938;2022-07-17T00:55:25;14.90;72.20
8010;DHT22;4050;51.160;6.938;2022-07-17T00:58:12;14.90;72.60
8010;DHT22;4050;51.160;6.938;2022-07-17T01:00:45;14.90;73.10
8010;DHT22;4050;51.160;6.938;2022-07-17T01:03:15;14.80;73.50
8010;DHT22;4050;51.160;6.938;2022-07-17T01:05:43;14.80;74.10
8010;DHT22;4050;51.160;6.938;2022-07-17T01:08:12;14.70;74.30
8010;DHT22;4050;51.160;6.938;2022-07-17T01:10:40;14.70;75.00
8010;DHT22;4050;51.160;6.938;2022-07-17T01:13:08;14.70;75.30
8010;DHT22;4050;51.160;6.938;2022-07-17T01:15:39;14.70;75.60
8010;DHT22;4050;51.160;6.938;2022-07-17T01:18:10;14.70;76.20
8010;DHT22;4050;51.160;6.938;2022-07-17T01:20:42;14.70;76.30
8010;DHT22;4050;51.160;6.938;2022-07-17T01:23:11;14.70;76.50
8010;DHT22;4050;51.160;6.938;2022-07-17T01:25:42;14.60;76.70
8010;DHT22;4050;51.160;6.938;2022-07-17T01:28:10;14.60;76.90
8010;DHT22;4050;51.160;6.938;2022-07-17T01:30:45;14.60;77.10
8010;DHT22;4050;51.160;6.938;2022-07-17T01:33:13;14.60;77.40
8010;DHT22;4050;51.160;6.938;2022-07-17T01:35:41;14.60;77.70
8010;DHT22;4050;51.160;6.938;2022-07-17T01:38:11;14.50;78.00
8010;DHT22;4050;51.160;6.938;2022-07-17T01:40:38;14.50;78.50
8010;DHT22;4050;51.160;6.938;2022-07-17T01:43:06;14.50;78.80
8010;DHT22;4050;51.160;6.938;2022-07-17T01:45:35;14.50;79.20
8010;DHT22;4050;51.160;6.938;2022-07-17T01:48:04;14.50;79.60
8010;DHT22;4050;51.160;6.938;2022-07-17T01:50:32;14.50;80.20
8010;DHT22;4050;51.160;6.938;2022-07-17T01:53:00;14.40;80.60
8010;DHT22;4050;51.160;6.938;2022-07-17T01:55:29;14.40;81.60
8010;DHT22;4050;51.160;6.938;2022-07-17T01:57:57;14.30;81.40
8010;DHT22;4050;51.160;6.938;2022-07-17T02:00:25;14.20;81.70
8010;DHT22;4050;51.160;6.938;2022-07-17T02:02:53;14.20;82.20
8010;DHT22;4050;51.160;6.938;2022-07-17T02:05:21;14.10;82.60
8010;DHT22;4050;51.160;6.938;2022-07-17T02:07:49;14.00;83.10
8010;DHT22;4050;51.160;6.938;2022-07-17T02:10:17;14.00;83.70
8010;DHT22;4050;51.160;6.938;2022-07-17T02:12:46;13.90;84.10
8010;DHT22;4050;51.160;6.938;2022-07-17T02:15:14;13.80;84.30
8010;DHT22;4050;51.160;6.938;2022-07-17T02:17:42;13.80;84.80
8010;DHT22;4050;51.160;6.938;2022-07-17T02:20:11;13.70;85.10
8010;DHT22;4050;51.160;6.938;2022-07-17T02:22:39;13.60;85.60
8010;DHT22;4050;51.160;6.938;2022-07-17T02:25:08;13.60;86.10
8010;DHT22;4050;51.160;6.938;2022-07-17T02:27:37;13.50;86.40
8010;DHT22;4050;51.160;6.938;2022-07-17T02:30:09;13.40;86.60
8010;DHT22;4050;51.160;6.938;2022-07-17T02:32:37;13.40;88.40
8010;DHT22;4050;51.160;6.938;2022-07-17T02:35:06;13.30;90.00
8010;DHT22;4050;51.160;6.938;2022-07-17T02:37:35;13.20;91.00
8010;DHT22;4050;51.160;6.938;2022-07-17T02:40:04;13.20;93.70
8010;DHT22;4050;51.160;6.938;2022-07-17T02:42:32;13.10;87.70
8010;DHT22;4050;51.160;6.938;2022-07-17T02:45:00;13.10;88.60
8010;DHT22;4050;51.160;6.938;2022-07-17T02:47:30;13.00;89.00
8010;DHT22;4050;51.160;6.938;2022-07-17T02:49:59;13.00;89.40
8010;DHT22;4050;51.160;6.938;2022-07-17T02:52:28;12.90;89.90
8010;DHT22;4050;51.160;6.938;2022-07-17T02:54:57;12.90;90.10
8010;DHT22;4050;51.160;6.938;2022-07-17T02:57:25;12.80;90.40
8010;DHT22;4050;51.160;6.938;2022-07-17T02:59:52;12.80;90.50
8010;DHT22;4050;51.160;6.938;2022-07-17T03:02:20;12.70;90.70
8010;DHT22;4050;51.160;6.938;2022-07-17T03:04:50;12.70;90.90
8010;DHT22;4050;51.160;6.938;2022-07-17T03:07:18;12.70;91.00
8010;DHT22;4050;51.160;6.938;2022-07-17T03:09:46;12.60;91.10
8010;DHT22;4050;51.160;6.938;2022-07-17T03:12:14;12.60;91.30
8010;DHT22;4050;51.160;6.938;2022-07-17T03:14:41;12.50;91.40
8010;DHT22;4050;51.160;6.938;2022-07-17T03:17:09;12.60;91.60
8010;DHT22;4050;51.160;6.938;2022-07-17T03:19:37;12.50;91.70
8010;DHT22;4050;51.160;6.938;2022-07-17T03:22:06;12.50;91.90
8010;DHT22;4050;51.160;6.938;2022-07-17T03:24:34;12.50;92.00
8010;DHT22;4050;51.160;6.938;2022-07-17T03:27:02;12.40;92.00
8010;DHT22;4050;51.160;6.938;2022-07-17T03:29:30;12.40;92.10
8010;DHT22;4050;51.160;6.938;2022-07-17T03:31:58;12.40;92.30
8010;DHT22;4050;51.160;6.938;2022-07-17T03:34:26;12.40;92.40
8010;DHT22;4050;51.160;6.938;2022-07-17T03:36:54;12.40;92.70
8010;DHT22;4050;51.160;6.938;2022-07-17T03:39:23;12.40;92.80
8010;DHT22;4050;51.160;6.938;2022-07-17T03:41:51;12.40;92.80
8010;DHT22;4050;51.160;6.938;2022-07-17T03:44:19;12.30;92.90
8010;DHT22;4050;51.160;6.938;2022-07-17T03:46:48;12.30;93.10
8010;DHT22;4050;51.160;6.938;2022-07-17T03:49:16;12.30;93.20
8010;DHT22;4050;51.160;6.938;2022-07-17T03:51:44;12.40;93.40
8010;DHT22;4050;51.160;6.938;2022-07-17T03:54:12;12.40;93.50
8010;DHT22;4050;51.160;6.938;2022-07-17T03:56:42;12.40;93.50
8010;DHT22;4050;51.160;6.938;2022-07-17T03:59:09;12.40;93.60
8010;DHT22;4050;51.160;6.938;2022-07-17T04:01:37;12.40;93.70
8010;DHT22;4050;51.160;6.938;2022-07-17T04:04:05;12.40;93.80
8010;DHT22;4050;51.160;6.938;2022-07-17T04:06:33;12.50;93.90
8010;DHT22;4050;51.160;6.938;2022-07-17T04:09:02;12.50;94.00
8010;DHT22;4050;51.160;6.938;2022-07-17T04:11:30;12.60;94.10
8010;DHT22;4050;51.160;6.938;2022-07-17T04:13:59;12.70;94.40
8010;DHT22;4050;51.160;6.938;2022-07-17T04:16:27;13.10;95.10
8010;DHT22;4050;51.160;6.938;2022-07-17T04:18:55;13.50;95.70
8010;DHT22;4050;51.160;6.938;2022-07-17T04:21:24;14.00;95.90
8010;DHT22;4050;51.160;6.938;2022-07-17T04:23:52;14.50;95.40
8010;DHT22;4050;51.160;6.938;2022-07-17T04:26:20;14.90;94.40
8010;DHT22;4050;51.160;6.938;2022-07-17T04:28:48;15.20;93.70
8010;DHT22;4050;51.160;6.938;2022-07-17T04:31:17;15.70;93.40
8010;DHT22;4050;51.160;6.938;2022-07-17T04:33:45;16.30;93.20
8010;DHT22;4050;51.160;6.938;2022-07-17T04:36:13;17.00;92.50
8010;DHT22;4050;51.160;6.938;2022-07-17T04:38:41;17.70;91.40
8010;DHT22;4050;51.160;6.938;2022-07-17T04:41:09;18.30;90.00
8010;DHT22;4050;51.160;6.938;2022-07-17T04:43:37;18.80;86.40
8010;DHT22;4050;51.160;6.938;2022-07-17T04:46:06;19.40;84.70
8010;DHT22;4050;51.160;6.938;2022-07-17T04:48:35;20.00;81.50
8010;DHT22;4050;51.160;6.938;2022-07-17T04:51:03;20.50;77.30
8010;DHT22;4050;51.160;6.938;2022-07-17T04:53:31;20.90;73.70
8010;DHT22;4050;51.160;6.938;2022-07-17T04:56:00;21.30;70.30
8010;DHT22;4050;51.160;6.938;2022-07-17T04:58:28;21.60;66.10
8010;DHT22;4050;51.160;6.938;2022-07-17T05:00:56;21.80;63.10
8010;DHT22;4050;51.160;6.938;2022-07-17T05:03:23;22.20;62.20
8010;DHT22;4050;51.160;6.938;2022-07-17T05:05:53;22.70;60.20
8010;DHT22;4050;51.160;6.938;2022-07-17T05:08:20;23.40;57.80
8010;DHT22;4050;51.160;6.938;2022-07-17T05:10:48;24.10;55.80
8010;DHT22;4050;51.160;6.938;2022-07-17T05:13:16;24.90;53.40
8010;DHT22;4050;51.160;6.938;2022-07-17T05:15:44;25.60;51.20
8010;DHT22;4050;51.160;6.938;2022-07-17T05:18:12;26.20;48.20
8010;DHT22;4050;51.160;6.938;2022-07-17T05:20:40;26.70;45.60
8010;DHT22;4050;51.160;6.938;2022-07-17T05:23:10;27.10;44.00
8010;DHT22;4050;51.160;6.938;2022-07-17T05:25:38;27.50;42.40
8010;DHT22;4050;51.160;6.938;2022-07-17T05:28:06;27.90;41.20
8010;DHT22;4050;51.160;6.938;2022-07-17T05:30:33;28.50;39.80
8010;DHT22;4050;51.160;6.938;2022-07-17T05:33:01;28.90;38.30
8010;DHT22;4050;51.160;6.938;2022-07-17T05:35:29;29.10;37.20
8010;DHT22;4050;51.160;6.938;2022-07-17T05:37:58;29.30;36.70
8010;DHT22;4050;51.160;6.938;2022-07-17T05:40:27;29.60;36.30
8010;DHT22;4050;51.160;6.938;2022-07-17T05:42:55;29.90;35.20
8010;DHT22;4050;51.160;6.938;2022-07-17T05:45:23;30.20;34.40
8010;DHT22;4050;51.160;6.938;2022-07-17T05:47:50;30.40;33.90
8010;DHT22;4050;51.160;6.938;2022-07-17T05:50:19;30.80;33.60
8010;DHT22;4050;51.160;6.938;2022-07-17T05:52:46;31.20;32.90
8010;DHT22;4050;51.160;6.938;2022-07-17T05:55:14;31.70;32.10
8010;DHT22;4050;51.160;6.938;2022-07-17T05:57:44;32.00;31.20
8010;DHT22;4050;51.160;6.938;2022-07-17T06:00:12;32.20;30.50
8010;DHT22;4050;51.160;6.938;2022-07-17T06:02:40;32.40;30.00
8010;DHT22;4050;51.160;6.938;2022-07-17T06:05:08;32.40;29.60
8010;DHT22;4050;51.160;6.938;2022-07-17T06:07:43;32.30;29.50
8010;DHT22;4050;51.160;6.938;2022-07-17T06:10:11;32.30;29.60
8010;DHT22;4050;51.160;6.938;2022-07-17T06:12:39;32.30;29.60
8010;DHT22;4050;51.160;6.938;2022-07-17T06:15:09;32.30;29.60
8010;DHT22;4050;51.160;6.938;2022-07-17T06:17:38;32.20;29.50
8010;DHT22;4050;51.160;6.938;2022-07-17T06:20:11;32.30;29.30
8010;DHT22;4050;51.160;6.938;2022-07-17T06:22:39;32.50;29.40
8010;DHT22;4050;51.160;6.938;2022-07-17T06:25:08;32.80;29.10
8010;DHT22;4050;51.160;6.938;2022-07-17T06:27:38;33.00;29.00
8010;DHT22;4050;51.160;6.938;2022-07-17T06:30:09;33.30;29.00
8010;DHT22;4050;51.160;6.938;2022-07-17T06:32:38;33.50;28.60
8010;DHT22;4050;51.160;6.938;2022-07-17T06:35:07;33.70;28.50
8010;DHT22;4050;51.160;6.938;2022-07-17T06:37:35;34.00;28.50
8010;DHT22;4050;51.160;6.938;2022-07-17T06:40:04;34.40;27.80
8010;DHT22;4050;51.160;6.938;2022-07-17T06:42:32;34.70;27.60
8010;DHT22;4050;51.160;6.938;2022-07-17T06:45:00;35.00;27.10
8010;DHT22;4050;51.160;6.938;2022-07-17T06:47:29;35.10;26.70
8010;DHT22;4050;51.160;6.938;2022-07-17T06:49:57;35.10;26.70
8010;DHT22;4050;51.160;6.938;2022-07-17T06:52:25;34.90;26.70
8010;DHT22;4050;51.160;6.938;2022-07-17T06:54:56;35.00;26.50
8010;DHT22;4050;51.160;6.938;2022-07-17T06:57:24;35.00;26.40
8010;DHT22;4050;51.160;6.938;2022-07-17T06:59:52;35.10;26.40
8010;DHT22;4050;51.160;6.938;2022-07-17T07:02:20;35.10;26.30
8010;DHT22;4050;51.160;6.938;2022-07-17T07:04:49;35.30;26.20
8010;DHT22;4050;51.160;6.938;2022-07-17T07:07:17;35.40;26.00
8010;DHT22;4050;51.160;6.938;2022-07-17T07:09:45;35.40;25.90
8010;DHT22;4050;51.160;6.938;2022-07-17T07:12:13;35.60;25.90
8010;DHT22;4050;51.160;6.938;2022-07-17T07:14:41;35.70;25.90
8010;DHT22;4050;51.160;6.938;2022-07-17T07:17:09;35.80;25.90
8010;DHT22;4050;51.160;6.938;2022-07-17T07:19:37;36.20;25.60
8010;DHT22;4050;51.160;6.938;2022-07-17T07:22:07;36.40;25.40
8010;DHT22;4050;51.160;6.938;2022-07-17T07:24:35;36.60;24.90
8010;DHT22;4050;51.160;6.938;2022-07-17T07:27:03;36.70;24.60
8010;DHT22;4050;51.160;6.938;2022-07-17T07:29:31;36.70;25.00
8010;DHT22;4050;51.160;6.938;2022-07-17T07:31:59;36.90;24.50
8010;DHT22;4050;51.160;6.938;2022-07-17T07:34:27;37.20;24.30
8010;DHT22;4050;51.160;6.938;2022-07-17T07:36:55;37.40;24.10
8010;DHT22;4050;51.160;6.938;2022-07-17T07:39:24;37.30;24.00
8010;DHT22;4050;51.160;6.938;2022-07-17T07:41:52;37.40;24.20
8010;DHT22;4050;51.160;6.938;2022-07-17T07:44:20;37.70;24.00
8010;DHT22;4050;51.160;6.938;2022-07-17T07:46:57;38.00;23.90
8010;DHT22;4050;51.160;6.938;2022-07-17T07:49:25;38.20;23.40
8010;DHT22;4050;51.160;6.938;2022-07-17T07:51:55;38.40;23.10
8010;DHT22;4050;51.160;6.938;2022-07-17T07:54:32;38.80;22.70
8010;DHT22;4050;51.160;6.938;2022-07-17T07:57:00;39.30;22.80
8010;DHT22;4050;51.160;6.938;2022-07-17T07:59:29;39.50;22.60
8010;DHT22;4050;51.160;6.938;2022-07-17T08:01:59;39.70;22.30
8010;DHT22;4050;51.160;6.938;2022-07-17T08:04:27;39.80;22.10
8010;DHT22;4050;51.160;6.938;2022-07-17T08:06:55;40.00;21.90
8010;DHT22;4050;51.160;6.938;2022-07-17T08:09:23;40.10;21.90
8010;DHT22;4050;51.160;6.938;2022-07-17T08:11:52;40.30;22.00
8010;DHT22;4050;51.160;6.938;2022-07-17T08:14:20;40.40;21.90
8010;DHT22;4050;51.160;6.938;2022-07-17T08:16:48;40.60;21.70
8010;DHT22;4050;51.160;6.938;2022-07-17T08:19:16;40.80;21.80
8010;DHT22;4050;51.160;6.938;2022-07-17T08:21:44;41.20;21.60
8010;DHT22;4050;51.160;6.938;2022-07-17T08:24:12;41.60;21.20
8010;DHT22;4050;51.160;6.938;2022-07-17T08:26:40;41.90;21.10
8010;DHT22;4050;51.160;6.938;2022-07-17T08:29:09;42.30;20.60
8010;DHT22;4050;51.160;6.938;2022-07-17T08:31:38;42.50;19.90
8010;DHT22;4050;51.160;6.938;2022-07-17T08:34:07;42.80;19.80
8010;DHT22;4050;51.160;6.938;2022-07-17T08:36:34;42.90;19.60
8010;DHT22;4050;51.160;6.938;2022-07-17T08:39:03;42.90;19.40
8010;DHT22;4050;51.160;6.938;2022-07-17T08:41:31;42.70;19.30
8010;DHT22;4050;51.160;6.938;2022-07-17T08:44:04;42.70;19.40
8010;DHT22;4050;51.160;6.938;2022-07-17T08:46:35;42.70;19.50
8010;DHT22;4050;51.160;6.938;2022-07-17T08:49:05;42.80;19.40
8010;DHT22;4050;51.160;6.938;2022-07-17T08:51:34;42.90;19.70
8010;DHT22;4050;51.160;6.938;2022-07-17T08:54:08;42.90;19.50
8010;DHT22;4050;51.160;6.938;2022-07-17T08:56:36;43.10;19.60
8010;DHT22;4050;51.160;6.938;2022-07-17T08:59:04;43.30;19.40
8010;DHT22;4050;51.160;6.938;2022-07-17T09:01:32;43.40;19.40
8010;DHT22;4050;51.160;6.938;2022-07-17T09:04:04;43.40;19.30
8010;DHT22;4050;51.160;6.938;2022-07-17T09:06:34;43.50;19.00
8010;DHT22;4050;51.160;6.938;2022-07-17T09:09:05;43.40;19.10
8010;DHT22;4050;51.160;6.938;2022-07-17T09:11:43;43.40;19.20
8010;DHT22;4050;51.160;6.938;2022-07-17T09:14:12;43.40;19.00
8010;DHT22;4050;51.160;6.938;2022-07-17T09:16:50;43.40;19.10
8010;DHT22;4050;51.160;6.938;2022-07-17T09:19:30;43.50;19.00
8010;DHT22;4050;51.160;6.938;2022-07-17T09:22:06;43.60;19.00
8010;DHT22;4050;51.160;6.938;2022-07-17T09:24:39;43.60;19.10
8010;DHT22;4050;51.160;6.938;2022-07-17T09:27:09;43.90;19.20
8010;DHT22;4050;51.160;6.938;2022-07-17T09:29:50;44.00;18.90
8010;DHT22;4050;51.160;6.938;2022-07-17T09:32:21;44.20;18.70
8010;DHT22;4050;51.160;6.938;2022-07-17T09:34:52;44.10;18.70
8010;DHT22;4050;51.160;6.938;2022-07-17T09:37:22;44.30;18.70
8010;DHT22;4050;51.160;6.938;2022-07-17T09:39:51;44.70;18.60
8010;DHT22;4050;51.160;6.938;2022-07-17T09:42:22;44.90;18.50
8010;DHT22;4050;51.160;6.938;2022-07-17T09:44:58;45.10;18.40
8010;DHT22;4050;51.160;6.938;2022-07-17T09:47:27;45.50;18.30
8010;DHT22;4050;51.160;6.938;2022-07-17T09:49:58;45.90;17.90
8010;DHT22;4050;51.160;6.938;2022-07-17T09:52:30;46.30;17.70
8010;DHT22;4050;51.160;6.938;2022-07-17T09:54:59;46.60;17.70
8010;DHT22;4050;51.160;6.938;2022-07-17T09:57:48;46.90;17.50
8010;DHT22;4050;51.160;6.938;2022-07-17T10:00:16;47.30;17.30
8010;DHT22;4050;51.160;6.938;2022-07-17T10:02:50;47.70;17.20
8010;DHT22;4050;51.160;6.938;2022-07-17T10:05:19;47.90;17.00
8010;DHT22;4050;51.160;6.938;2022-07-17T10:07:48;48.10;16.80
8010;DHT22;4050;51.160;6.938;2022-07-17T10:10:18;48.20;16.60
8010;DHT22;4050;51.160;6.938;2022-07-17T10:12:49;48.30;16.70
8010;DHT22;4050;51.160;6.938;2022-07-17T10:15:24;48.10;16.40
8010;DHT22;4050;51.160;6.938;2022-07-17T10:18:04;48.00;16.60
8010;DHT22;4050;51.160;6.938;2022-07-17T10:20:33;47.60;16.00
8010;DHT22;4050;51.160;6.938;2022-07-17T10:23:11;47.00;16.40
8010;DHT22;4050;51.160;6.938;2022-07-17T10:25:40;46.70;16.40
8010;DHT22;4050;51.160;6.938;2022-07-17T10:28:10;46.30;16.50
8010;DHT22;4050;51.160;6.938;2022-07-17T10:30:42;45.60;16.50
8010;DHT22;4050;51.160;6.938;2022-07-17T10:33:15;45.20;17.10
8010;DHT22;4050;51.160;6.938;2022-07-17T10:35:46;44.90;17.10
8010;DHT22;4050;51.160;6.938;2022-07-17T10:38:15;44.40;17.20
8010;DHT22;4050;51.160;6.938;2022-07-17T10:40:43;43.80;17.50
8010;DHT22;4050;51.160;6.938;2022-07-17T10:43:11;43.20;17.80
8010;DHT22;4050;51.160;6.938;2022-07-17T10:45:41;42.80;18.00
8010;DHT22;4050;51.160;6.938;2022-07-17T10:48:12;42.60;17.90
8010;DHT22;4050;51.160;6.938;2022-07-17T10:50:42;42.30;18.00
8010;DHT22;4050;51.160;6.938;2022-07-17T10:53:15;42.00;18.00
8010;DHT22;4050;51.160;6.938;2022-07-17T10:55:52;41.90;17.90
8010;DHT22;4050;51.160;6.938;2022-07-17T10:58:23;41.30;18.50
8010;DHT22;4050;51.160;6.938;2022-07-17T11:00:56;41.30;19.00
8010;DHT22;4050;51.160;6.938;2022-07-17T11:03:25;41.50;19.30
8010;DHT22;4050;51.160;6.938;2022-07-17T11:05:53;41.70;19.20
8010;DHT22;4050;51.160;6.938;2022-07-17T11:08:22;41.60;18.90
8010;DHT22;4050;51.160;6.938;2022-07-17T11:10:51;41.00;19.00
8010;DHT22;4050;51.160;6.938;2022-07-17T11:13:19;40.20;19.40
8010;DHT22;4050;51.160;6.938;2022-07-17T11:15:48;39.20;19.70
8010;DHT22;4050;51.160;6.938;2022-07-17T11:18:17;38.20;20.10
8010;DHT22;4050;51.160;6.938;2022-07-17T11:20:47;37.00;20.80
8010;DHT22;4050;51.160;6.938;2022-07-17T11:23:15;35.80;21.40
8010;DHT22;4050;51.160;6.938;2022-07-17T11:25:57;34.80;22.70
8010;DHT22;4050;51.160;6.938;2022-07-17T11:28:43;34.00;23.70
8010;DHT22;4050;51.160;6.938;2022-07-17T11:31:17;33.30;24.30
8010;DHT22;4050;51.160;6.938;2022-07-17T11:33:50;32.60;24.90
8010;DHT22;4050;51.160;6.938;2022-07-17T11:36:25;32.30;25.20
8010;DHT22;4050;51.160;6.938;2022-07-17T11:38:56;31.90;25.40
8010;DHT22;4050;51.160;6.938;2022-07-17T11:41:32;31.40;25.70
8010;DHT22;4050;51.160;6.938;2022-07-17T11:44:01;31.10;25.90
8010;DHT22;4050;51.160;6.938;2022-07-17T11:46:30;30.80;26.10
8010;DHT22;4050;51.160;6.938;2022-07-17T11:49:01;30.70;26.20
8010;DHT22;4050;51.160;6.938;2022-07-17T11:51:37;30.60;26.40
8010;DHT22;4050;51.160;6.938;2022-07-17T11:54:07;30.40;26.70
8010;DHT22;4050;51.160;6.938;2022-07-17T11:56:37;30.40;27.10
8010;DHT22;4050;51.160;6.938;2022-07-17T11:59:06;30.40;27.30
8010;DHT22;4050;51.160;6.938;2022-07-17T12:01:41;30.60;27.50
8010;DHT22;4050;51.160;6.938;2022-07-17T12:04:14;30.60;28.00
8010;DHT22;4050;51.160;6.938;2022-07-17T12:06:44;30.50;27.00
8010;DHT22;4050;51.160;6.938;2022-07-17T12:09:13;30.40;27.00
8010;DHT22;4050;51.160;6.938;2022-07-17T12:11:49;30.40;27.00
8010;DHT22;4050;51.160;6.938;2022-07-17T12:14:17;30.40;27.00
8010;DHT22;4050;51.160;6.938;2022-07-17T12:16:46;30.40;27.00
8010;DHT22;4050;51.160;6.938;2022-07-17T12:19:16;30.50;27.10
8010;DHT22;4050;51.160;6.938;2022-07-17T12:21:51;30.50;27.10
8010;DHT22;4050;51.160;6.938;2022-07-17T12:24:23;30.50;26.90
8010;DHT22;4050;51.160;6.938;2022-07-17T12:26:54;30.50;26.90
8010;DHT22;4050;51.160;6.938;2022-07-17T12:29:24;30.50;26.80
8010;DHT22;4050;51.160;6.938;2022-07-17T12:32:05;30.60;26.90
8010;DHT22;4050;51.160;6.938;2022-07-17T12:34:34;30.60;26.90
8010;DHT22;4050;51.160;6.938;2022-07-17T12:37:04;30.70;26.70
8010;DHT22;4050;51.160;6.938;2022-07-17T12:39:32;30.70;26.70
8010;DHT22;4050;51.160;6.938;2022-07-17T12:42:01;30.70;26.90
8010;DHT22;4050;51.160;6.938;2022-07-17T12:44:30;30.60;26.70
8010;DHT22;4050;51.160;6.938;2022-07-17T12:46:57;30.50;27.10
8010;DHT22;4050;51.160;6.938;2022-07-17T12:49:26;30.50;27.20
8010;DHT22;4050;51.160;6.938;2022-07-17T12:51:54;30.70;27.40
8010;DHT22;4050;51.160;6.938;2022-07-17T12:54:22;30.80;27.30
8010;DHT22;4050;51.160;6.938;2022-07-17T12:56:50;30.90;27.20
8010;DHT22;4050;51.160;6.938;2022-07-17T12:59:20;31.00;27.10
8010;DHT22;4050;51.160;6.938;2022-07-17T13:01:49;30.90;27.00
8010;DHT22;4050;51.160;6.938;2022-07-17T13:04:18;30.90;27.00
8010;DHT22;4050;51.160;6.938;2022-07-17T13:06:47;30.90;26.70
8010;DHT22;4050;51.160;6.938;2022-07-17T13:09:15;30.80;26.70
8010;DHT22;4050;51.160;6.938;2022-07-17T13:11:46;30.60;26.50
8010;DHT22;4050;51.160;6.938;2022-07-17T13:14:17;30.50;26.80
8010;DHT22;4050;51.160;6.938;2022-07-17T13:16:50;30.60;26.80
8010;DHT22;4050;51.160;6.938;2022-07-17T13:19:18;30.60;26.60
8010;DHT22;4050;51.160;6.938;2022-07-17T13:21:49;30.60;26.60
8010;DHT22;4050;51.160;6.938;2022-07-17T13:24:17;30.60;26.80
8010;DHT22;4050;51.160;6.938;2022-07-17T13:26:45;30.50;26.80
8010;DHT22;4050;51.160;6.938;2022-07-17T13:29:13;30.50;27.10
8010;DHT22;4050;51.160;6.938;2022-07-17T13:31:45;30.60;27.10
8010;DHT22;4050;51.160;6.938;2022-07-17T13:34:21;30.70;26.90
8010;DHT22;4050;51.160;6.938;2022-07-17T13:36:49;30.80;26.70
8010;DHT22;4050;51.160;6.938;2022-07-17T13:39:17;30.90;27.10
8010;DHT22;4050;51.160;6.938;2022-07-17T13:41:46;31.00;26.70
8010;DHT22;4050;51.160;6.938;2022-07-17T13:44:14;31.10;26.70
8010;DHT22;4050;51.160;6.938;2022-07-17T13:46:42;31.20;26.80
8010;DHT22;4050;51.160;6.938;2022-07-17T13:49:10;31.20;26.70
8010;DHT22;4050;51.160;6.938;2022-07-17T13:51:39;31.30;26.80
8010;DHT22;4050;51.160;6.938;2022-07-17T13:54:07;31.10;26.90
8010;DHT22;4050;51.160;6.938;2022-07-17T13:56:35;30.90;27.00
8010;DHT22;4050;51.160;6.938;2022-07-17T13:59:03;30.70;27.20
8010;DHT22;4050;51.160;6.938;2022-07-17T14:01:31;30.50;27.40
8010;DHT22;4050;51.160;6.938;2022-07-17T14:04:01;30.40;28.00
8010;DHT22;4050;51.160;6.938;2022-07-17T14:06:29;30.30;28.10
8010;DHT22;4050;51.160;6.938;2022-07-17T14:08:58;30.20;27.80
8010;DHT22;4050;51.160;6.938;2022-07-17T14:11:26;30.10;27.90
8010;DHT22;4050;51.160;6.938;2022-07-17T14:13:55;30.10;28.10
8010;DHT22;4050;51.160;6.938;2022-07-17T14:16:23;30.20;28.20
8010;DHT22;4050;51.160;6.938;2022-07-17T14:18:53;30.20;28.10
8010;DHT22;4050;51.160;6.938;2022-07-17T14:21:31;30.30;28.00
8010;DHT22;4050;51.160;6.938;2022-07-17T14:24:01;30.30;27.80
8010;DHT22;4050;51.160;6.938;2022-07-17T14:26:30;30.40;27.70
8010;DHT22;4050;51.160;6.938;2022-07-17T14:28:58;30.40;27.60
8010;DHT22;4050;51.160;6.938;2022-07-17T14:31:26;30.30;27.50
8010;DHT22;4050;51.160;6.938;2022-07-17T14:33:54;30.30;27.20
8010;DHT22;4050;51.160;6.938;2022-07-17T14:36:22;30.10;27.10
8010;DHT22;4050;51.160;6.938;2022-07-17T14:38:50;29.90;27.20
8010;DHT22;4050;51.160;6.938;2022-07-17T14:41:20;29.70;27.20
8010;DHT22;4050;51.160;6.938;2022-07-17T14:43:48;29.70;27.10
8010;DHT22;4050;51.160;6.938;2022-07-17T14:46:16;29.50;26.70
8010;DHT22;4050;51.160;6.938;2022-07-17T14:48:44;29.50;27.00
8010;DHT22;4050;51.160;6.938;2022-07-17T14:51:12;29.50;26.90
8010;DHT22;4050;51.160;6.938;2022-07-17T14:53:40;29.50;27.00
8010;DHT22;4050;51.160;6.938;2022-07-17T14:56:08;29.60;27.10
8010;DHT22;4050;51.160;6.938;2022-07-17T14:58:38;29.70;26.90
8010;DHT22;4050;51.160;6.938;2022-07-17T15:01:07;29.80;26.70
8010;DHT22;4050;51.160;6.938;2022-07-17T15:03:35;29.80;26.50
8010;DHT22;4050;51.160;6.938;2022-07-17T15:06:04;29.80;26.50
8010;DHT22;4050;51.160;6.938;2022-07-17T15:08:32;29.70;26.40
8010;DHT22;4050;51.160;6.938;2022-07-17T15:11:02;29.70;26.50
8010;DHT22;4050;51.160;6.938;2022-07-17T15:13:31;29.70;26.60
8010;DHT22;4050;51.160;6.938;2022-07-17T15:16:00;29.70;26.60
8010;DHT22;4050;51.160;6.938;2022-07-17T15:18:29;29.80;26.70
8010;DHT22;4050;51.160;6.938;2022-07-17T15:20:57;30.00;26.70
8010;DHT22;4050;51.160;6.938;2022-07-17T15:23:24;30.10;26.60
8010;DHT22;4050;51.160;6.938;2022-07-17T15:25:52;30.20;26.40
8010;DHT22;4050;51.160;6.938;2022-07-17T15:28:20;30.20;26.60
8010;DHT22;4050;51.160;6.938;2022-07-17T15:30:52;30.20;26.50
8010;DHT22;4050;51.160;6.938;2022-07-17T15:33:21;30.10;27.00
8010;DHT22;4050;51.160;6.938;2022-07-17T15:35:52;29.90;26.80
8010;DHT22;4050;51.160;6.938;2022-07-17T15:38:20;29.90;27.10
8010;DHT22;4050;51.160;6.938;2022-07-17T15:40:48;29.80;26.90
8010;DHT22;4050;51.160;6.938;2022-07-17T15:43:20;29.70;27.10
8010;DHT22;4050;51.160;6.938;2022-07-17T15:45:48;29.60;27.30
8010;DHT22;4050;51.160;6.938;2022-07-17T15:48:16;29.60;27.40
8010;DHT22;4050;51.160;6.938;2022-07-17T15:50:45;29.60;27.40
8010;DHT22;4050;51.160;6.938;2022-07-17T15:53:13;29.70;27.60
8010;DHT22;4050;51.160;6.938;2022-07-17T15:55:40;29.70;27.90
8010;DHT22;4050;51.160;6.938;2022-07-17T15:58:08;29.70;28.00
8010;DHT22;4050;51.160;6.938;2022-07-17T16:00:36;29.70;28.10
8010;DHT22;4050;51.160;6.938;2022-07-17T16:03:04;29.70;27.80
8010;DHT22;4050;51.160;6.938;2022-07-17T16:05:32;29.80;27.70
8010;DHT22;4050;51.160;6.938;2022-07-17T16:08:01;29.70;27.70
8010;DHT22;4050;51.160;6.938;2022-07-17T16:10:30;29.70;27.80
8010;DHT22;4050;51.160;6.938;2022-07-17T16:13:01;29.60;27.90
8010;DHT22;4050;51.160;6.938;2022-07-17T16:15:29;29.50;28.20